Terminal Aerodrome Forecast
Issued by NWS Wakefield, VA

Home | Current Version | Previous Version | Text Only | Print | Product List | Glossary On
Versions: 1 2 3 4 5 6 7 8 9 10 11 12 13 14 15 16
000
FTUS41 KAKQ 012300 RRA
TAFECG
TAF
KECG 012356Z 0200/0224 34008KT 6SM -RA BR OVC005
      TEMPO 0200/0202 2SM -RA BR OVC010
     FM020300 23006KT 4SM BR OVC005
     FM020800 24008KT 5SM BR SCT006 OVC012
     FM021500 32009KT 5SM BR SCT015 OVC030
     FM021800 01012G20KT P6SM BKN050=

USA.gov is the U.S. government's official web portal to all federal, state and local government web resources and services.